Wetterdaten: Woche 07.03.16 - 13.03.16 (KW10)
Datum Zeit Temp. Aussen Temp. o. S. +5cm Feuchte Auss BlattFeu 1 Luftdruck Regen Sonnenschein Regendauer Solar Windben Empfang
07.03.2016 00:00 1,8 C 1,8 C 0,7 C 94 % 15 lf 1001,7 hPa 0,0 l/m 0,00 h 0,07 h 0 W/m 4,9 km/h (1 Bft) 95,43 %
07.03.2016 01:00 1,7 C 1,0 C -0,1 C 95 % 15 lf 1001,7 hPa 0,0 l/m 0,00 h 0,00 h 0 W/m 8,1 km/h (2 Bft) 97,73 %
07.03.2016 02:00 1,2 C 0,7 C -0,3 C 95 % 15 lf 1001,6 hPa 0,0 l/m 0,00 h 0,07 h 0 W/m 7,5 km/h (2 Bft) 96,09 %
07.03.2016 03:00 1,4 C 1,4 C 0,3 C 96 % 15 lf 1001,5 hPa 0,2 l/m 0,00 h 0,27 h 0 W/m 10,2 km/h (2 Bft) 94,94 %
07.03.2016 04:00 1,2 C 0,7 C -0,3 C 96 % 15 lf 1001,7 hPa 0,2 l/m 0,00 h 0,83 h 0 W/m 10,5 km/h (2 Bft) 95,16 %
07.03.2016 05:00 0,4 C 0,0 C -1,1 C 96 % 15 lf 1002,0 hPa 0,2 l/m 0,00 h 0,90 h 0 W/m 2,9 km/h (1 Bft) 97,30 %
07.03.2016 06:00 0,2 C 0,2 C -1,1 C 96 % 15 lf 1002,1 hPa 0,2 l/m 0,00 h 0,77 h 0 W/m 0,0 km/h (0 Bft) 96,87 %
07.03.2016 07:00 0,3 C 0,6 C -1,1 C 96 % 15 lf 1002,6 hPa 0,2 l/m 0,00 h 0,00 h 7 W/m 0,7 km/h (0 Bft) 94,16 %
07.03.2016 08:00 0,6 C 1,5 C -0,3 C 97 % 15 lf 1003,0 hPa 0,6 l/m 0,00 h 0,00 h 41 W/m 4,4 km/h (1 Bft) 97,01 %
07.03.2016 09:00 1,4 C 2,9 C 1,1 C 97 % 15 lf 1003,3 hPa 1,0 l/m 0,00 h 0,00 h 107 W/m 4,0 km/h (1 Bft) 95,80 %
07.03.2016 10:00 2,1 C 3,9 C 2,6 C 97 % 14 lf 1003,6 hPa 0,6 l/m 0,03 h 0,00 h 164 W/m 4,9 km/h (1 Bft) 95,94 %
07.03.2016 11:00 2,8 C 4,2 C 3,2 C 97 % 6 lf 1003,8 hPa 0,0 l/m 0,07 h 0,00 h 172 W/m 7,8 km/h (2 Bft) 97,44 %
07.03.2016 12:00 2,8 C 4,2 C 2,5 C 96 % 0 lf 1004,2 hPa 0,0 l/m 0,00 h 0,00 h 105 W/m 6,6 km/h (2 Bft) 94,81 %
07.03.2016 13:00 3,2 C 4,2 C 2,5 C 93 % 0 lf 1004,5 hPa 0,0 l/m 0,00 h 0,00 h 91 W/m 6,9 km/h (2 Bft) 95,30 %
07.03.2016 14:00 3,4 C 5,8 C 3,1 C 90 % 0 lf 1004,5 hPa 0,0 l/m 0,00 h 0,00 h 151 W/m 3,5 km/h (1 Bft) 98,71 %
07.03.2016 15:00 4,2 C 6,3 C 3,9 C 84 % 0 lf 1004,7 hPa 0,0 l/m 0,00 h 0,00 h 145 W/m 7,1 km/h (2 Bft) 95,58 %
07.03.2016 16:00 4,7 C 9,5 C 3,8 C 82 % 0 lf 1005,1 hPa 0,0 l/m 0,83 h 0,00 h 222 W/m 10,5 km/h (2 Bft) 94,94 %
07.03.2016 17:00 4,5 C 4,7 C 2,7 C 82 % 0 lf 1005,6 hPa 0,0 l/m 0,27 h 0,00 h 55 W/m 8,4 km/h (2 Bft) 97,08 %
07.03.2016 18:00 3,3 C 1,6 C 0,3 C 84 % 0 lf 1006,2 hPa 0,0 l/m 0,20 h 0,00 h 13 W/m 2,0 km/h (1 Bft) 96,44 %
07.03.2016 19:00 1,6 C -0,7 C -1,8 C 85 % 4 lf 1007,2 hPa 0,0 l/m 0,00 h 0,00 h 0 W/m 0,8 km/h (0 Bft) 95,87 %
07.03.2016 20:00 0,2 C -1,7 C -2,4 C 87 % 13 lf 1007,8 hPa 0,0 l/m 0,00 h 0,00 h 0 W/m 0,0 km/h (0 Bft) 95,72 %
07.03.2016 21:00 -0,7 C -1,7 C -2,8 C 89 % 6 lf 1008,4 hPa 0,0 l/m 0,00 h 0,00 h 0 W/m 1,4 km/h (1 Bft) 96,22 %
07.03.2016 22:00 -1,1 C -2,0 C -3,0 C 91 % 1 lf 1008,9 hPa 0,0 l/m 0,00 h 0,00 h 0 W/m 2,0 km/h (1 Bft) 96,16 %
07.03.2016 23:00 -1,5 C -2,2 C -3,0 C 93 % 1 lf 1009,4 hPa 0,0 l/m 0,00 h 0,00 h 0 W/m 2,3 km/h (1 Bft) 96,09 %
08.03.2016 00:00 -1,5 C -1,5 C -2,7 C 94 % 2 lf 1010,0 hPa 0,0 l/m 0,00 h 0,00 h 0 W/m 3,8 km/h (1 Bft) 97,02 %
08.03.2016 01:00 -1,4 C -2,5 C -3,1 C 95 % 1 lf 1010,4 hPa 0,0 l/m 0,00 h 0,00 h 0 W/m 4,3 km/h (1 Bft) 92,60 %
08.03.2016 02:00 -1,9 C -2,6 C -3,7 C 95 % 1 lf 1010,7 hPa 0,0 l/m 0,00 h 0,00 h 0 W/m 2,7 km/h (1 Bft) 96,68 %
08.03.2016 03:00 -2,4 C -3,4 C -4,0 C 95 % 1 lf 1011,0 hPa 0,0 l/m 0,00 h 0,00 h 0 W/m 0,1 km/h (0 Bft) 97,79 %
08.03.2016 04:00 -2,8 C -3,1 C -4,1 C 95 % 1 lf 1011,5 hPa 0,0 l/m 0,00 h 0,00 h 0 W/m 4,8 km/h (1 Bft) 95,52 %
08.03.2016 05:00 -2,4 C -2,8 C -3,7 C 96 % 1 lf 1012,1 hPa 0,0 l/m 0,00 h 0,00 h 0 W/m 6,0 km/h (2 Bft) 97,30 %
08.03.2016 06:00 -2,3 C -2,7 C -3,8 C 96 % 1 lf 1012,7 hPa 0,0 l/m 0,00 h 0,00 h 4 W/m 4,3 km/h (1 Bft) 94,24 %
08.03.2016 07:00 -2,1 C -2,0 C -2,9 C 96 % 1 lf 1013,3 hPa 0,0 l/m 0,20 h 0,00 h 28 W/m 7,2 km/h (2 Bft) 96,30 %
08.03.2016 08:00 -1,0 C -0,2 C -1,4 C 97 % 12 lf 1014,1 hPa 0,0 l/m 0,13 h 0,00 h 83 W/m 10,0 km/h (2 Bft) 96,94 %
08.03.2016 09:00 0,1 C 0,8 C -0,3 C 97 % 15 lf 1014,6 hPa 0,2 l/m 0,00 h 0,00 h 80 W/m 10,1 km/h (2 Bft) 97,01 %
08.03.2016 10:00 1,1 C 2,2 C 1,0 C 97 % 15 lf 1015,1 hPa 0,0 l/m 0,00 h 0,00 h 127 W/m 13,0 km/h (3 Bft) 94,73 %
08.03.2016 11:00 1,7 C 2,9 C 1,9 C 98 % 15 lf 1015,4 hPa 0,0 l/m 0,00 h 0,00 h 137 W/m 11,9 km/h (2 Bft) 94,73 %
08.03.2016 12:00 2,5 C 4,4 C 3,3 C 98 % 1 lf 1015,7 hPa 0,0 l/m 0,13 h 0,00 h 215 W/m 13,6 km/h (3 Bft) 98,72 %
08.03.2016 13:00 4,3 C 7,9 C 5,1 C 96 % 0 lf 1015,6 hPa 0,0 l/m 0,37 h 0,00 h 338 W/m 15,3 km/h (3 Bft) 95,32 %
08.03.2016 14:00 5,8 C 10,5 C 5,8 C 85 % 0 lf 1015,4 hPa 0,0 l/m 0,70 h 0,00 h 397 W/m 15,5 km/h (3 Bft) 94,16 %
08.03.2016 15:00 7,3 C 13,2 C 5,7 C 76 % 0 lf 1015,3 hPa 0,0 l/m 0,92 h 0,00 h 373 W/m 14,6 km/h (3 Bft) 98,80 %
08.03.2016 16:00 6,5 C 7,9 C 4,7 C 76 % 0 lf 1015,3 hPa 0,0 l/m 0,47 h 0,00 h 141 W/m 14,8 km/h (3 Bft) 94,82 %
08.03.2016 17:00 5,5 C 5,5 C 3,8 C 79 % 0 lf 1015,1 hPa 0,0 l/m 0,10 h 0,00 h 53 W/m 13,7 km/h (3 Bft) 95,80 %
08.03.2016 18:00 4,6 C 4,4 C 2,9 C 82 % 0 lf 1015,5 hPa 0,0 l/m 0,13 h 0,00 h 13 W/m 12,4 km/h (3 Bft) 96,22 %
08.03.2016 19:00 4,2 C 4,3 C 2,6 C 84 % 2 lf 1016,0 hPa 0,0 l/m 0,00 h 0,30 h 0 W/m 12,2 km/h (2 Bft) 96,63 %
08.03.2016 20:00 3,9 C 3,4 C 2,0 C 86 % 9 lf 1016,0 hPa 0,0 l/m 0,00 h 1,00 h 0 W/m 13,0 km/h (3 Bft) 95,63 %
08.03.2016 21:00 3,5 C 3,3 C 1,7 C 88 % 6 lf 1015,5 hPa 0,0 l/m 0,00 h 0,00 h 0 W/m 12,9 km/h (3 Bft) 97,07 %
08.03.2016 22:00 3,3 C 3,2 C 1,5 C 87 % 0 lf 1014,4 hPa 0,0 l/m 0,00 h 0,00 h 0 W/m 16,0 km/h (3 Bft) 94,38 %
08.03.2016 23:00 2,5 C 2,3 C 0,7 C 87 % 0 lf 1013,9 hPa 0,0 l/m 0,00 h 0,00 h 0 W/m 10,8 km/h (2 Bft) 96,69 %
09.03.2016 00:00 1,4 C 0,9 C -0,4 C 88 % 0 lf 1013,4 hPa 0,0 l/m 0,00 h 0,00 h 0 W/m 9,4 km/h (2 Bft) 98,06 %
09.03.2016 01:00 0,4 C 0,2 C -1,1 C 90 % 0 lf 1012,8 hPa 0,0 l/m 0,00 h 0,00 h 0 W/m 11,3 km/h (2 Bft) 94,43 %
09.03.2016 02:00 -0,1 C 0,0 C -1,6 C 92 % 0 lf 1012,0 hPa 0,0 l/m 0,00 h 0,00 h 0 W/m 13,7 km/h (3 Bft) 95,88 %
09.03.2016 03:00 -0,3 C 0,0 C -1,7 C 93 % 0 lf 1010,8 hPa 0,0 l/m 0,00 h 0,00 h 0 W/m 15,5 km/h (3 Bft) 95,94 %
09.03.2016 04:00 -0,1 C 0,0 C -1,2 C 93 % 0 lf 1009,8 hPa 0,0 l/m 0,00 h 0,00 h 0 W/m 18,2 km/h (3 Bft) 96,48 %
09.03.2016 05:00 -0,1 C 0,0 C -1,4 C 93 % 0 lf 1009,1 hPa 0,0 l/m 0,00 h 0,00 h 0 W/m 20,2 km/h (4 Bft) 95,23 %
09.03.2016 06:00 -0,2 C 0,0 C -1,6 C 93 % 0 lf 1008,5 hPa 0,0 l/m 0,00 h 0,00 h 6 W/m 22,2 km/h (4 Bft) 95,35 %
09.03.2016 07:00 -0,1 C 0,4 C -1,0 C 93 % 0 lf 1007,9 hPa 0,0 l/m 0,77 h 0,03 h 44 W/m 24,5 km/h (4 Bft) 96,11 %
09.03.2016 08:00 1,0 C 3,4 C 0,9 C 92 % 0 lf 1007,1 hPa 0,0 l/m 1,00 h 0,00 h 191 W/m 27,0 km/h (4 Bft) 96,30 %
09.03.2016 09:00 3,1 C 7,0 C 5,3 C 84 % 0 lf 1006,6 hPa 0,2 l/m 1,00 h 0,00 h 377 W/m 31,8 km/h (5 Bft) 96,47 %
09.03.2016 10:00 4,8 C 7,8 C 7,2 C 76 % 0 lf 1005,7 hPa 0,0 l/m 1,00 h 0,00 h 444 W/m 36,1 km/h (5 Bft) 95,73 %
09.03.2016 11:00 5,7 C 9,3 C 8,1 C 72 % 0 lf 1005,2 hPa 0,0 l/m 1,00 h 0,00 h 525 W/m 40,6 km/h (6 Bft) 95,94 %
09.03.2016 12:00 7,0 C 11,3 C 6,9 C 68 % 0 lf 1004,7 hPa 0,0 l/m 1,00 h 0,00 h 591 W/m 41,0 km/h (6 Bft) 96,43 %
09.03.2016 13:00 7,7 C 11,6 C 6,7 C 63 % 0 lf 1004,3 hPa 0,0 l/m 1,00 h 0,00 h 566 W/m 41,8 km/h (6 Bft) 96,12 %
09.03.2016 14:00 8,1 C 11,6 C 6,8 C 61 % 0 lf 1004,0 hPa 0,0 l/m 1,00 h 0,00 h 497 W/m 39,3 km/h (6 Bft) 97,44 %
09.03.2016 15:00 8,4 C 11,6 C 6,7 C 61 % 0 lf 1004,0 hPa 0,0 l/m 1,00 h 0,00 h 386 W/m 37,1 km/h (5 Bft) 93,80 %
09.03.2016 16:00 8,4 C 11,3 C 6,7 C 60 % 0 lf 1004,0 hPa 0,0 l/m 1,00 h 0,00 h 227 W/m 31,4 km/h (5 Bft) 97,80 %
09.03.2016 17:00 8,0 C 8,4 C 6,1 C 60 % 0 lf 1004,3 hPa 0,0 l/m 0,40 h 0,00 h 67 W/m 26,5 km/h (4 Bft) 97,33 %
09.03.2016 18:00 7,0 C 6,7 C 4,7 C 65 % 0 lf 1005,2 hPa 0,0 l/m 0,13 h 0,00 h 14 W/m 19,3 km/h (3 Bft) 93,72 %
09.03.2016 19:00 6,0 C 5,8 C 4,0 C 67 % 0 lf 1006,2 hPa 0,0 l/m 0,00 h 0,00 h 0 W/m 15,5 km/h (3 Bft) 96,62 %
09.03.2016 20:00 5,3 C 5,3 C 3,5 C 66 % 0 lf 1007,1 hPa 0,0 l/m 0,00 h 0,00 h 0 W/m 22,4 km/h (4 Bft) 97,72 %
09.03.2016 21:00 4,7 C 4,5 C 2,9 C 69 % 0 lf 1008,0 hPa 0,0 l/m 0,00 h 0,00 h 0 W/m 20,0 km/h (4 Bft) 93,75 %
09.03.2016 22:00 3,8 C 3,4 C 1,7 C 72 % 0 lf 1008,5 hPa 0,0 l/m 0,00 h 0,00 h 0 W/m 13,3 km/h (3 Bft) 95,65 %
09.03.2016 23:00 2,8 C 2,5 C 0,7 C 76 % 0 lf 1009,1 hPa 0,0 l/m 0,00 h 0,00 h 0 W/m 9,4 km/h (2 Bft) 97,36 %
10.03.2016 00:00 1,9 C 1,5 C -0,3 C 78 % 0 lf 1009,8 hPa 0,0 l/m 0,00 h 0,00 h 0 W/m 11,1 km/h (2 Bft) 95,66 %
10.03.2016 01:00 1,8 C 2,0 C 0,3 C 80 % 0 lf 1010,5 hPa 0,0 l/m 0,00 h 0,00 h 0 W/m 11,9 km/h (2 Bft) 96,51 %
10.03.2016 02:00 1,3 C 0,3 C -1,7 C 80 % 0 lf 1011,3 hPa 0,0 l/m 0,00 h 0,00 h 0 W/m 6,2 km/h (2 Bft) 94,53 %
10.03.2016 03:00 0,1 C -1,7 C -2,7 C 81 % 0 lf 1011,8 hPa 0,0 l/m 0,00 h 0,00 h 0 W/m 2,4 km/h (1 Bft) 95,76 %
10.03.2016 04:00 -1,0 C -2,5 C -3,2 C 83 % 0 lf 1012,4 hPa 0,0 l/m 0,00 h 0,00 h 0 W/m 4,3 km/h (1 Bft) 96,08 %
10.03.2016 05:00 -1,8 C -2,8 C -3,5 C 86 % 0 lf 1013,1 hPa 0,0 l/m 0,00 h 0,00 h 0 W/m 3,6 km/h (1 Bft) 97,22 %
10.03.2016 06:00 -2,3 C -3,0 C -3,9 C 88 % 1 lf 1013,9 hPa 0,0 l/m 0,00 h 0,00 h 6 W/m 0,0 km/h (0 Bft) 97,77 %
10.03.2016 07:00 -2,6 C -2,4 C -3,6 C 90 % 1 lf 1014,9 hPa 0,0 l/m 0,77 h 0,00 h 46 W/m 0,0 km/h (0 Bft) 92,94 %
10.03.2016 08:00 -1,6 C 5,9 C -0,7 C 92 % 0 lf 1015,6 hPa 0,0 l/m 1,00 h 0,00 h 188 W/m 3,3 km/h (1 Bft) 96,05 %
10.03.2016 09:00 2,9 C 14,1 C 7,1 C 89 % 0 lf 1016,4 hPa 0,0 l/m 1,00 h 0,00 h 350 W/m 6,9 km/h (2 Bft) 95,94 %
10.03.2016 10:00 6,3 C 15,2 C 11,0 C 71 % 0 lf 1017,2 hPa 0,0 l/m 1,00 h 0,00 h 476 W/m 10,3 km/h (2 Bft) 94,69 %
10.03.2016 11:00 7,9 C 17,0 C 11,8 C 66 % 0 lf 1017,8 hPa 0,0 l/m 1,00 h 0,00 h 556 W/m 10,5 km/h (2 Bft) 98,44 %
10.03.2016 12:00 9,1 C 16,8 C 8,1 C 63 % 0 lf 1018,1 hPa 0,0 l/m 1,00 h 0,00 h 588 W/m 11,9 km/h (2 Bft) 94,38 %
10.03.2016 13:00 10,2 C 18,1 C 8,2 C 59 % 0 lf 1018,4 hPa 0,0 l/m 1,00 h 0,00 h 570 W/m 12,6 km/h (3 Bft) 94,66 %
10.03.2016 14:00 11,0 C 18,6 C 8,6 C 57 % 0 lf 1018,7 hPa 0,0 l/m 1,00 h 0,00 h 497 W/m 12,4 km/h (3 Bft) 97,65 %
10.03.2016 15:00 11,2 C 17,2 C 8,8 C 54 % 0 lf 1019,0 hPa 0,0 l/m 0,98 h 0,00 h 383 W/m 11,4 km/h (2 Bft) 96,91 %
10.03.2016 16:00 11,1 C 15,3 C 8,4 C 55 % 0 lf 1019,1 hPa 0,0 l/m 0,98 h 0,00 h 222 W/m 11,0 km/h (2 Bft) 98,03 %
10.03.2016 17:00 9,6 C 9,6 C 6,9 C 62 % 0 lf 1019,5 hPa 0,0 l/m 0,23 h 0,00 h 58 W/m 12,1 km/h (2 Bft) 93,31 %
10.03.2016 18:00 7,7 C 6,5 C 4,8 C 69 % 0 lf 1020,4 hPa 0,0 l/m 0,00 h 0,00 h 12 W/m 14,7 km/h (3 Bft) 95,88 %
10.03.2016 19:00 6,2 C 5,4 C 3,5 C 73 % 0 lf 1021,2 hPa 0,0 l/m 0,00 h 0,00 h 0 W/m 16,4 km/h (3 Bft) 97,51 %
10.03.2016 20:00 5,2 C 4,7 C 3,0 C 76 % 0 lf 1022,0 hPa 0,0 l/m 0,00 h 0,00 h 0 W/m 16,6 km/h (3 Bft) 95,51 %
10.03.2016 21:00 4,4 C 3,9 C 2,0 C 77 % 0 lf 1022,8 hPa 0,0 l/m 0,00 h 0,00 h 0 W/m 11,6 km/h (2 Bft) 94,16 %
10.03.2016 22:00 3,6 C 3,1 C 1,3 C 79 % 0 lf 1023,3 hPa 0,0 l/m 0,00 h 0,00 h 0 W/m 10,1 km/h (2 Bft) 96,01 %
10.03.2016 23:00 2,9 C 2,4 C 0,4 C 81 % 0 lf 1023,6 hPa 0,0 l/m 0,00 h 0,00 h 0 W/m 7,6 km/h (2 Bft) 96,79 %
11.03.2016 00:00 2,1 C 1,4 C -0,6 C 83 % 0 lf 1023,9 hPa 0,0 l/m 0,00 h 0,00 h 0 W/m 6,4 km/h (2 Bft) 96,25 %
11.03.2016 01:00 1,5 C 1,2 C -0,7 C 86 % 0 lf 1024,2 hPa 0,0 l/m 0,00 h 0,00 h 0 W/m 6,0 km/h (2 Bft) 95,37 %
11.03.2016 02:00 1,0 C 0,4 C -0,9 C 88 % 0 lf 1024,4 hPa 0,0 l/m 0,00 h 0,00 h 0 W/m 4,4 km/h (1 Bft) 95,59 %
11.03.2016 03:00 1,0 C 1,2 C -0,0 C 90 % 0 lf 1024,6 hPa 0,0 l/m 0,00 h 0,00 h 0 W/m 3,1 km/h (1 Bft) 95,94 %
11.03.2016 04:00 1,3 C 0,2 C -0,8 C 92 % 1 lf 1024,7 hPa 0,0 l/m 0,00 h 0,00 h 0 W/m 3,1 km/h (1 Bft) 96,99 %
11.03.2016 05:00 0,3 C -1,3 C -2,3 C 91 % 5 lf 1025,0 hPa 0,0 l/m 0,00 h 0,00 h 0 W/m 1,5 km/h (1 Bft) 98,79 %
11.03.2016 06:00 -0,7 C -2,1 C -2,8 C 90 % 14 lf 1025,4 hPa 0,0 l/m 0,00 h 0,00 h 6 W/m 0,8 km/h (0 Bft) 92,32 %
11.03.2016 07:00 -1,2 C -1,5 C -2,4 C 91 % 15 lf 1025,9 hPa 0,0 l/m 0,00 h 0,00 h 29 W/m 0,3 km/h (0 Bft) 96,44 %
11.03.2016 08:00 -0,4 C 2,8 C 0,9 C 93 % 13 lf 1026,5 hPa 0,0 l/m 0,37 h 0,00 h 116 W/m 0,0 km/h (0 Bft) 97,08 %
11.03.2016 09:00 2,4 C 5,5 C 3,4 C 95 % 0 lf 1026,9 hPa 0,0 l/m 0,00 h 0,00 h 139 W/m 9,0 km/h (2 Bft) 95,30 %
11.03.2016 10:00 5,2 C 9,4 C 6,8 C 95 % 0 lf 1026,9 hPa 0,0 l/m 0,83 h 0,00 h 262 W/m 16,7 km/h (3 Bft) 97,51 %
11.03.2016 11:00 7,8 C 13,8 C 9,7 C 84 % 0 lf 1026,9 hPa 0,0 l/m 1,00 h 0,00 h 415 W/m 19,2 km/h (3 Bft) 95,87 %
11.03.2016 12:00 9,8 C 15,6 C 9,6 C 73 % 0 lf 1026,9 hPa 0,0 l/m 0,90 h 0,00 h 524 W/m 16,8 km/h (3 Bft) 94,10 %
11.03.2016 13:00 11,1 C 17,7 C 9,9 C 67 % 0 lf 1026,7 hPa 0,0 l/m 0,85 h 0,00 h 507 W/m 17,7 km/h (3 Bft) 97,10 %
11.03.2016 14:00 10,8 C 12,2 C 10,0 C 63 % 0 lf 1026,4 hPa 0,0 l/m 0,00 h 0,00 h 211 W/m 20,6 km/h (4 Bft) 97,06 %
11.03.2016 15:00 10,7 C 12,3 C 10,0 C 60 % 0 lf 1026,3 hPa 0,0 l/m 0,27 h 0,00 h 199 W/m 18,0 km/h (3 Bft) 94,65 %
11.03.2016 16:00 10,2 C 11,2 C 8,5 C 64 % 0 lf 1026,2 hPa 0,0 l/m 0,30 h 0,00 h 134 W/m 18,7 km/h (3 Bft) 96,23 %
11.03.2016 17:00 9,3 C 9,7 C 7,0 C 67 % 0 lf 1026,3 hPa 0,0 l/m 0,50 h 0,00 h 76 W/m 16,6 km/h (3 Bft) 96,02 %
11.03.2016 18:00 7,9 C 6,7 C 4,7 C 71 % 0 lf 1026,8 hPa 0,0 l/m 0,07 h 0,00 h 15 W/m 12,3 km/h (3 Bft) 96,25 %
11.03.2016 19:00 6,1 C 5,5 C 3,5 C 77 % 0 lf 1027,4 hPa 0,0 l/m 0,00 h 0,00 h 0 W/m 17,1 km/h (3 Bft) 97,09 %
11.03.2016 20:00 4,8 C 3,9 C 2,5 C 82 % 0 lf 1028,0 hPa 0,0 l/m 0,00 h 0,00 h 0 W/m 15,8 km/h (3 Bft) 93,98 %
11.03.2016 21:00 3,4 C 2,5 C 1,3 C 85 % 0 lf 1028,5 hPa 0,0 l/m 0,00 h 0,00 h 0 W/m 11,9 km/h (2 Bft) 95,98 %
11.03.2016 22:00 2,6 C 2,0 C 0,8 C 87 % 0 lf 1028,8 hPa 0,0 l/m 0,00 h 0,00 h 0 W/m 10,6 km/h (2 Bft) 98,55 %
11.03.2016 23:00 1,8 C 0,6 C -0,4 C 88 % 0 lf 1028,6 hPa 0,0 l/m 0,00 h 0,00 h 0 W/m 5,6 km/h (1 Bft) 95,77 %
12.03.2016 00:00 0,8 C -0,8 C -1,8 C 88 % 1 lf 1028,5 hPa 0,0 l/m 0,00 h 0,00 h 0 W/m 4,4 km/h (1 Bft) 95,10 %
12.03.2016 01:00 -0,1 C -1,7 C -2,2 C 89 % 6 lf 1028,4 hPa 0,0 l/m 0,00 h 0,00 h 0 W/m 2,9 km/h (1 Bft) 95,51 %
12.03.2016 02:00 -0,8 C -2,6 C -2,8 C 89 % 14 lf 1028,6 hPa 0,0 l/m 0,00 h 0,00 h 0 W/m 0,3 km/h (0 Bft) 96,58 %
12.03.2016 03:00 -1,5 C -3,0 C -3,2 C 90 % 15 lf 1028,4 hPa 0,0 l/m 0,00 h 0,00 h 0 W/m 1,7 km/h (1 Bft) 96,59 %
12.03.2016 04:00 -1,8 C -2,3 C -3,0 C 91 % 9 lf 1028,6 hPa 0,0 l/m 0,00 h 0,00 h 0 W/m 6,2 km/h (2 Bft) 95,73 %
12.03.2016 05:00 -1,8 C -2,8 C -3,3 C 92 % 1 lf 1028,6 hPa 0,0 l/m 0,00 h 0,00 h 0 W/m 3,8 km/h (1 Bft) 96,58 %
12.03.2016 06:00 -2,1 C -3,3 C -3,8 C 93 % 1 lf 1028,8 hPa 0,0 l/m 0,00 h 0,00 h 6 W/m 0,7 km/h (0 Bft) 93,52 %
12.03.2016 07:00 -2,5 C -3,0 C -3,5 C 93 % 1 lf 1029,3 hPa 0,0 l/m 0,53 h 0,00 h 48 W/m 1,1 km/h (1 Bft) 96,87 %
12.03.2016 08:00 -1,2 C 3,8 C 0,2 C 94 % 10 lf 1029,6 hPa 0,0 l/m 1,00 h 0,00 h 185 W/m 5,7 km/h (1 Bft) 97,79 %
12.03.2016 09:00 3,0 C 10,9 C 7,6 C 95 % 8 lf 1029,9 hPa 0,0 l/m 1,00 h 0,00 h 350 W/m 11,7 km/h (2 Bft) 93,87 %
12.03.2016 10:00 6,4 C 12,8 C 11,0 C 77 % 0 lf 1030,0 hPa 0,0 l/m 1,00 h 0,00 h 470 W/m 17,5 km/h (3 Bft) 96,14 %
12.03.2016 11:00 8,2 C 15,8 C 11,4 C 67 % 0 lf 1029,9 hPa 0,0 l/m 0,93 h 0,00 h 543 W/m 17,1 km/h (3 Bft) 98,15 %
12.03.2016 12:00 9,0 C 15,6 C 8,4 C 63 % 0 lf 1029,8 hPa 0,0 l/m 1,00 h 0,00 h 586 W/m 15,7 km/h (3 Bft) 94,02 %
12.03.2016 13:00 9,8 C 16,6 C 8,1 C 61 % 0 lf 1029,5 hPa 0,0 l/m 0,93 h 0,00 h 595 W/m 18,0 km/h (3 Bft) 97,44 %
12.03.2016 14:00 10,1 C 15,9 C 8,1 C 61 % 0 lf 1029,1 hPa 0,0 l/m 0,93 h 0,00 h 523 W/m 16,0 km/h (3 Bft) 94,58 %
12.03.2016 15:00 10,1 C 15,4 C 7,9 C 61 % 0 lf 1029,1 hPa 0,0 l/m 0,93 h 0,00 h 413 W/m 17,6 km/h (3 Bft) 97,32 %
12.03.2016 16:00 9,1 C 13,0 C 6,7 C 64 % 0 lf 1029,3 hPa 0,0 l/m 0,97 h 0,00 h 236 W/m 20,3 km/h (4 Bft) 95,89 %
12.03.2016 17:00 7,5 C 8,0 C 5,1 C 68 % 0 lf 1029,5 hPa 0,0 l/m 0,67 h 0,00 h 86 W/m 23,1 km/h (4 Bft) 93,80 %
12.03.2016 18:00 5,3 C 4,6 C 3,0 C 74 % 0 lf 1030,0 hPa 0,0 l/m 0,23 h 0,00 h 18 W/m 19,8 km/h (3 Bft) 98,30 %
12.03.2016 19:00 3,8 C 3,2 C 1,9 C 79 % 0 lf 1030,4 hPa 0,0 l/m 0,00 h 0,00 h 0 W/m 17,5 km/h (3 Bft) 95,66 %
12.03.2016 20:00 3,0 C 2,6 C 1,3 C 81 % 0 lf 1030,9 hPa 0,0 l/m 0,00 h 0,00 h 0 W/m 17,0 km/h (3 Bft) 95,52 %
12.03.2016 21:00 2,3 C 2,0 C 0,4 C 83 % 0 lf 1031,0 hPa 0,0 l/m 0,00 h 0,00 h 0 W/m 12,4 km/h (3 Bft) 95,21 %
12.03.2016 22:00 1,7 C 1,5 C -0,1 C 84 % 0 lf 1031,1 hPa 0,0 l/m 0,00 h 0,00 h 0 W/m 11,3 km/h (2 Bft) 97,31 %
12.03.2016 23:00 1,3 C 0,5 C -1,1 C 84 % 0 lf 1031,1 hPa 0,0 l/m 0,00 h 0,00 h 0 W/m 7,6 km/h (2 Bft) 95,71 %
13.03.2016 00:00 0,6 C 0,5 C -1,1 C 85 % 0 lf 1031,1 hPa 0,0 l/m 0,00 h 0,00 h 0 W/m 14,6 km/h (3 Bft) 96,91 %
13.03.2016 01:00 0,5 C 0,3 C -1,1 C 87 % 0 lf 1031,4 hPa 0,0 l/m 0,00 h 0,00 h 0 W/m 14,2 km/h (3 Bft) 95,46 %
13.03.2016 02:00 0,1 C -0,0 C -1,7 C 88 % 0 lf 1031,5 hPa 0,0 l/m 0,00 h 0,00 h 0 W/m 14,0 km/h (3 Bft) 95,17 %
13.03.2016 03:00 -0,2 C -0,2 C -1,6 C 89 % 0 lf 1031,6 hPa 0,0 l/m 0,00 h 0,00 h 0 W/m 15,1 km/h (3 Bft) 96,57 %
13.03.2016 04:00 0,2 C 0,9 C -0,5 C 91 % 0 lf 1031,6 hPa 0,0 l/m 0,00 h 0,00 h 0 W/m 17,5 km/h (3 Bft) 97,62 %
13.03.2016 05:00 0,5 C 0,3 C -1,1 C 89 % 0 lf 1031,8 hPa 0,0 l/m 0,00 h 0,00 h 0 W/m 14,1 km/h (3 Bft) 92,48 %
13.03.2016 06:00 0,2 C -0,5 C -2,1 C 87 % 0 lf 1032,4 hPa 0,0 l/m 0,00 h 0,00 h 7 W/m 9,2 km/h (2 Bft) 96,04 %
13.03.2016 07:00 -0,1 C 0,7 C -1,3 C 89 % 0 lf 1033,2 hPa 0,0 l/m 0,77 h 0,00 h 52 W/m 11,9 km/h (2 Bft) 97,63 %
13.03.2016 08:00 1,9 C 7,5 C 2,8 C 89 % 0 lf 1033,8 hPa 0,0 l/m 1,00 h 0,00 h 207 W/m 19,0 km/h (3 Bft) 94,38 %
13.03.2016 09:00 4,9 C 10,7 C 8,3 C 78 % 0 lf 1034,2 hPa 0,0 l/m 1,00 h 0,00 h 358 W/m 23,8 km/h (4 Bft) 95,90 %
13.03.2016 10:00 6,8 C 12,1 C 11,1 C 72 % 0 lf 1033,9 hPa 0,0 l/m 0,97 h 0,00 h 481 W/m 21,2 km/h (4 Bft) 97,72 %
13.03.2016 11:00 8,3 C 16,1 C 12,5 C 68 % 0 lf 1033,6 hPa 0,0 l/m 1,00 h 0,00 h 582 W/m 24,5 km/h (4 Bft) 93,90 %
13.03.2016 12:00 9,8 C 17,4 C 9,1 C 65 % 0 lf 1033,4 hPa 0,0 l/m 1,00 h 0,00 h 620 W/m 24,0 km/h (4 Bft) 96,92 %
13.03.2016 13:00 11,0 C 18,6 C 9,1 C 62 % 0 lf 1033,0 hPa 0,0 l/m 1,00 h 0,00 h 603 W/m 25,3 km/h (4 Bft) 97,68 %
13.03.2016 14:00 11,0 C 17,2 C 8,9 C 62 % 0 lf 1032,6 hPa 0,0 l/m 1,00 h 0,00 h 527 W/m 28,6 km/h (4 Bft) 95,12 %
13.03.2016 15:00 10,9 C 16,3 C 8,6 C 63 % 0 lf 1032,3 hPa 0,0 l/m 1,00 h 0,00 h 414 W/m 29,4 km/h (5 Bft) 95,80 %
13.03.2016 16:00 10,2 C 14,3 C 7,9 C 65 % 0 lf 1032,0 hPa 0,0 l/m 1,00 h 0,00 h 251 W/m 28,9 km/h (5 Bft) 95,74 %
13.03.2016 17:00 9,1 C 10,2 C 6,8 C 67 % 0 lf 1032,0 hPa 0,0 l/m 0,57 h 0,00 h 87 W/m 26,0 km/h (4 Bft) 98,06 %
13.03.2016 18:00 7,7 C 7,1 C 5,3 C 71 % 0 lf 1032,3 hPa 0,0 l/m 0,00 h 0,00 h 14 W/m 26,0 km/h (4 Bft) 94,64 %
13.03.2016 19:00 5,7 C 5,1 C 3,6 C 78 % 0 lf 1032,8 hPa 0,0 l/m 0,00 h 0,00 h 0 W/m 27,9 km/h (4 Bft) 95,71 %
13.03.2016 20:00 4,2 C 3,8 C 2,4 C 80 % 0 lf 1033,0 hPa 0,0 l/m 0,00 h 0,00 h 0 W/m 22,1 km/h (4 Bft) 94,94 %
13.03.2016 21:00 3,2 C 2,8 C 1,5 C 81 % 0 lf 1033,1 hPa 0,0 l/m 0,00 h 0,00 h 0 W/m 20,1 km/h (4 Bft) 97,23 %
13.03.2016 22:00 2,3 C 1,7 C 0,4 C 82 % 0 lf 1033,5 hPa 0,0 l/m 0,00 h 0,00 h 0 W/m 15,2 km/h (3 Bft) 95,65 %
13.03.2016 23:00 1,8 C 1,8 C 0,2 C 84 % 0 lf 1033,4 hPa 0,0 l/m 0,00 h 0,00 h 0 W/m 19,4 km/h (3 Bft) 97,59 %
Min-Datum _ 08.03.16 08.03.16 08.03.16 10.03.16 07.03.16 07.03.16 - - - - 07.03.16 11.03.16
_ Min-Zeit 04:22 03:24 03:46 15:50 12:22 02:30 - - - - 05:44 06:26
Minimum _ -2,9 C -3,9 C -4,4 C 53 % 0 lf 1001,5 hPa - - - - 0,0 km/h (0 Bft) 82,98 %
Max-Datum _ 11.03.16 10.03.16 12.03.16 07.03.16 07.03.16 13.03.16 07.03.16 07.03.16 07.03.16 08.03.16 09.03.16 07.03.16
_ Max-Zeit 13:50 13:38 11:02 11:28 00:00 09:18 09:02 10:10 00:00 13:10 13:22 00:32
Maximum _ 11,6 C 20,6 C 13,9 C 98 % 15 lf 1034,3 hPa 1,0 l/m 0,03 h 0,03 h 769 W/m 56,5 km/h
SO (7 Bft)
100,00 %
Durchschnitt _ 3,4 C 4,8 C 2,3 C 82 % 2 lf 1018,8 hPa #3,6 l/m #50:20 h #4:14 h 245 W/m 13,0 km/h (3 Bft) 96,04 %
© 2016 W. Hausmann